Ladera Ranch, California
Current Conditions -  °F | °C
As of 7:53 PM on Friday 24 Oct 2014 (Local Time) from KSNA Reporting Station
Clear Clear  
Wind Chill: 74°   Ceiling: Unl
Heat Index: 74°   Visibility: 8mi
Dew Point: 63°   Wind: 3mph
Humidity: 68%   Direction: 250°WSW
Pressure: 29.94"   Gusts: NA
Location:  33.58°N, 117.64°W
Report Text: KSNA 250253Z 25003KT 8SM CLR 23/17 A2994 RMK AO2 SLP138 T02330172 53008
Loading
Personal Weather Stations






























Interactive Weather Map
Tropical Storm Tracking
New forecast layout! Learn more

10-Day Weather Forecast

Advertisements
Track Severe Weather on mobile